Time;durP1;ratioP1;P1;durP2;ratioP2;P2;SDS_P1;SDS_P2;PMS_P1;PMS_P2;Temp;Humidity;BMP_temperature;BMP_pressure;BME280_temperature;BME280_humidity;BME280_pressure;Samples;Min_cycle;Max_cycle;Signal;HPM_P1;HPM_P2
2023/05/17 00:00:45;;;;;;;19.97;7.80;;;10.80;99.90;;;;;;4977487;28;20828;-72
2023/05/17 00:03:14;;;;;;;17.53;7.73;;;10.80;99.90;;;;;;4977437;28;20946;-72
2023/05/17 00:05:42;;;;;;;14.63;7.07;;;10.80;99.90;;;;;;4977561;28;20943;-73
2023/05/17 00:08:10;;;;;;;14.13;6.53;;;10.80;99.90;;;;;;4977372;28;20452;-73
2023/05/17 00:10:38;;;;;;;14.63;7.03;;;10.80;99.90;;;;;;4977614;28;20461;-72
2023/05/17 00:13:06;;;;;;;13.13;7.20;;;10.80;99.90;;;;;;4977471;28;20442;-73
2023/05/17 00:15:36;;;;;;;15.47;7.20;;;10.80;99.90;;;;;;4977500;28;20457;-73
2023/05/17 00:18:04;;;;;;;14.00;6.67;;;10.70;99.90;;;;;;4976513;28;20452;-73
2023/05/17 00:20:33;;;;;;;15.30;6.40;;;10.70;99.90;;;;;;4976301;28;20446;-73
2023/05/17 00:23:01;;;;;;;17.30;7.23;;;10.70;99.90;;;;;;4976340;28;20465;-73
2023/05/17 00:25:30;;;;;;;15.40;7.70;;;10.70;99.90;;;;;;4974704;28;20878;-72
2023/05/17 00:27:58;;;;;;;14.20;7.07;;;10.70;99.90;;;;;;4975942;28;20468;-72
2023/05/17 00:30:28;;;;;;;12.80;6.17;;;10.60;99.90;;;;;;4974899;28;20515;-72
2023/05/17 00:32:58;;;;;;;19.33;7.10;;;10.60;99.90;;;;;;4975976;28;20538;-72
2023/05/17 00:35:26;;;;;;;14.57;6.60;;;10.60;99.90;;;;;;4974557;28;20812;-72
2023/05/17 00:37:55;;;;;;;16.00;7.37;;;10.50;99.90;;;;;;4974582;28;20448;-72
2023/05/17 00:40:23;;;;;;;14.43;6.30;;;10.50;99.90;;;;;;4975875;28;20442;-72
2023/05/17 00:42:51;;;;;;;11.20;6.27;;;10.40;99.90;;;;;;4974506;28;20952;-73
2023/05/17 00:45:22;;;;;;;14.93;6.60;;;10.40;99.90;;;;;;4975884;28;20584;-72
2023/05/17 00:47:50;;;;;;;13.37;6.17;;;10.30;99.90;;;;;;4974524;28;20552;-72
2023/05/17 00:50:20;;;;;;;17.00;7.30;;;10.30;99.90;;;;;;4974524;28;20461;-73
2023/05/17 00:52:50;;;;;;;17.43;6.87;;;10.30;99.90;;;;;;4974211;28;20532;-72
2023/05/17 00:55:19;;;;;;;13.50;5.90;;;10.30;99.90;;;;;;4974108;28;20470;-73
2023/05/17 00:57:47;;;;;;;16.97;5.90;;;10.20;99.90;;;;;;4974114;28;20453;-73
2023/05/17 01:00:16;;;;;;;19.20;6.30;;;10.10;99.90;;;;;;4975337;28;20444;-74
2023/05/17 01:02:47;;;;;;;13.83;5.80;;;10.10;99.90;;;;;;4976497;28;20452;-73
2023/05/17 01:05:15;;;;;;;13.40;5.53;;;10.10;99.90;;;;;;4978034;28;20507;-73
2023/05/17 01:07:45;;;;;;;18.03;6.07;;;10.10;99.90;;;;;;4976767;28;20453;-73
2023/05/17 01:10:15;;;;;;;12.27;5.10;;;10.00;99.90;;;;;;4978132;28;20448;-73
2023/05/17 01:12:54;;;;;;;14.07;5.30;;;10.00;99.90;;;;;;4985091;28;20500;-73
2023/05/17 01:15:27;;;;;;;11.80;5.37;;;10.00;99.90;;;;;;4987509;28;20533;-73
2023/05/17 01:18:16;;;;;;;15.60;6.27;;;10.00;99.90;;;;;;4948736;28;1109604;-73
2023/05/17 01:20:46;;;;;;;15.10;5.50;;;9.90;99.90;;;;;;4984453;28;20167;-73
2023/05/17 01:23:37;;;;;;;19.93;5.83;;;9.90;99.90;;;;;;4980881;28;21023;-72
2023/05/17 01:26:10;;;;;;;18.10;5.90;;;9.90;99.90;;;;;;4984079;28;20480;-72
2023/05/17 01:28:41;;;;;;;13.10;5.80;;;9.80;99.90;;;;;;4980150;28;20545;-72
2023/05/17 01:31:11;;;;;;;12.73;5.40;;;9.80;99.90;;;;;;4983590;28;20589;-73
2023/05/17 01:33:39;;;;;;;17.83;6.37;;;9.70;99.90;;;;;;4983273;28;20442;-72
2023/05/17 01:36:08;;;;;;;14.63;5.30;;;9.70;99.90;;;;;;4979408;28;20465;-72
2023/05/17 01:38:36;;;;;;;16.97;6.77;;;9.70;99.90;;;;;;4981115;28;20492;-72
2023/05/17 01:41:13;;;;;;;14.53;5.20;;;9.70;99.90;;;;;;4981246;28;20435;-73
2023/05/17 01:43:49;;;;;;;11.47;5.70;;;9.60;99.90;;;;;;4980543;28;20451;-72
2023/05/17 01:46:26;;;;;;;15.73;5.63;;;9.60;99.90;;;;;;4982824;28;20483;-72
2023/05/17 01:49:05;;;;;;;17.67;6.67;;;9.60;99.90;;;;;;4978375;28;20896;-73
2023/05/17 01:51:37;;;;;;;16.33;5.70;;;9.60;99.90;;;;;;4974419;28;20468;-72
2023/05/17 01:54:10;;;;;;;16.97;5.40;;;9.50;99.90;;;;;;4975352;28;20517;-73
2023/05/17 01:56:44;;;;;;;13.47;3.97;;;9.50;99.90;;;;;;4975557;28;20874;-73
2023/05/17 01:59:20;;;;;;;15.13;5.87;;;9.50;99.90;;;;;;4974003;28;20878;-72
2023/05/17 02:01:50;;;;;;;17.27;6.57;;;9.50;99.90;;;;;;4975609;28;20430;-72
2023/05/17 02:04:18;;;;;;;15.10;5.83;;;9.40;99.90;;;;;;4975244;28;20437;-73
2023/05/17 02:06:47;;;;;;;11.00;5.33;;;9.40;99.90;;;;;;4974968;28;20470;-73
2023/05/17 02:09:15;;;;;;;16.20;5.67;;;9.40;99.90;;;;;;4975343;28;20438;-72
2023/05/17 02:11:43;;;;;;;15.10;6.33;;;9.40;99.90;;;;;;4974938;28;20532;-72
2023/05/17 02:14:12;;;;;;;20.00;6.10;;;9.40;99.90;;;;;;4974794;28;20466;-72
2023/05/17 02:16:40;;;;;;;18.83;5.83;;;9.30;99.90;;;;;;4973576;28;20917;-73
2023/05/17 02:19:08;;;;;;;15.53;5.80;;;9.30;99.90;;;;;;4975235;28;20469;-73
2023/05/17 02:21:38;;;;;;;12.23;5.13;;;9.30;99.90;;;;;;4973608;28;20454;-73
2023/05/17 02:24:06;;;;;;;16.60;5.60;;;9.30;99.90;;;;;;4975184;28;20446;-72
2023/05/17 02:26:35;;;;;;;14.10;5.33;;;9.20;99.90;;;;;;4973326;28;20465;-72
2023/05/17 02:29:03;;;;;;;13.37;5.40;;;9.20;99.90;;;;;;4974690;28;20442;-73
2023/05/17 02:31:32;;;;;;;12.30;5.10;;;9.20;99.90;;;;;;4974851;28;20437;-72
2023/05/17 02:34:01;;;;;;;12.90;5.13;;;9.20;99.90;;;;;;4975291;28;20437;-72
2023/05/17 02:36:29;;;;;;;15.90;5.27;;;9.10;99.90;;;;;;4973266;28;20461;-72
2023/05/17 02:38:57;;;;;;;17.40;4.70;;;9.10;99.90;;;;;;4973577;28;20807;-72
2023/05/17 02:41:25;;;;;;;15.10;5.73;;;9.10;99.90;;;;;;4974568;28;20450;-73
2023/05/17 02:43:53;;;;;;;18.40;5.53;;;9.10;99.90;;;;;;4974881;28;20520;-72
2023/05/17 02:46:21;;;;;;;15.70;5.60;;;9.00;99.90;;;;;;4974387;28;20576;-72
2023/05/17 02:48:51;;;;;;;14.07;5.10;;;9.10;99.90;;;;;;4973021;28;20448;-73
2023/05/17 02:51:19;;;;;;;14.83;5.57;;;9.00;99.90;;;;;;4974401;28;20793;-72
2023/05/17 02:53:47;;;;;;;16.93;5.27;;;9.00;99.90;;;;;;4974663;28;20438;-72
2023/05/17 02:56:15;;;;;;;13.63;5.10;;;9.00;99.90;;;;;;4973059;28;21058;-73
2023/05/17 02:58:43;;;;;;;19.50;5.70;;;9.00;99.90;;;;;;4973157;28;20453;-73
2023/05/17 03:01:12;;;;;;;12.83;5.13;;;9.00;99.90;;;;;;4974674;28;20544;-73
2023/05/17 03:03:40;;;;;;;15.00;4.87;;;8.90;99.90;;;;;;4973156;28;20477;-73
2023/05/17 03:06:10;;;;;;;14.03;4.90;;;8.90;99.90;;;;;;4972937;28;20473;-73
2023/05/17 03:08:38;;;;;;;13.77;4.63;;;8.90;99.90;;;;;;4974386;28;20440;-73
2023/05/17 03:11:08;;;;;;;16.40;5.57;;;8.90;99.90;;;;;;4973799;28;20450;-74
2023/05/17 03:13:36;;;;;;;12.70;5.30;;;8.90;99.90;;;;;;4973065;28;20456;-73
2023/05/17 03:16:05;;;;;;;13.23;5.50;;;8.90;99.90;;;;;;4972855;28;20466;-73
2023/05/17 03:18:34;;;;;;;16.60;4.60;;;8.80;99.90;;;;;;4972862;28;20453;-73
2023/05/17 03:21:02;;;;;;;14.87;5.97;;;8.80;99.90;;;;;;4972965;28;20496;-73
2023/05/17 03:23:33;;;;;;;15.07;4.80;;;8.80;99.90;;;;;;4972874;28;20460;-73
2023/05/17 03:26:03;;;;;;;16.10;4.60;;;8.80;99.90;;;;;;4972835;28;20572;-73
2023/05/17 03:28:36;;;;;;;16.90;5.90;;;8.70;99.90;;;;;;4973000;28;20457;-74
2023/05/17 03:31:05;;;;;;;15.83;5.47;;;8.70;99.90;;;;;;4973025;28;20508;-74
2023/05/17 03:33:34;;;;;;;14.03;5.57;;;8.70;99.90;;;;;;4972926;28;20818;-73
2023/05/17 03:36:03;;;;;;;16.40;4.73;;;8.60;99.90;;;;;;4972632;28;20466;-73
2023/05/17 03:38:34;;;;;;;11.60;5.00;;;8.60;99.90;;;;;;4973173;28;20454;-73
2023/05/17 03:41:03;;;;;;;13.30;4.90;;;8.60;99.90;;;;;;4973020;28;20442;-73
2023/05/17 03:43:32;;;;;;;10.70;4.60;;;8.60;99.90;;;;;;4973173;28;20485;-73
2023/05/17 03:46:01;;;;;;;13.23;4.90;;;8.50;99.90;;;;;;4972649;28;20560;-73
2023/05/17 03:48:30;;;;;;;15.07;5.30;;;8.50;99.90;;;;;;4972769;28;20453;-73
2023/05/17 03:51:02;;;;;;;11.90;4.07;;;8.50;99.90;;;;;;4972823;28;20446;-73
2023/05/17 03:53:30;;;;;;;16.93;4.80;;;8.50;99.90;;;;;;4972744;28;20441;-73
2023/05/17 03:56:00;;;;;;;11.93;4.40;;;8.50;99.90;;;;;;4972686;28;20839;-73
2023/05/17 03:58:28;;;;;;;10.97;4.20;;;8.50;99.90;;;;;;4972619;28;20477;-72
2023/05/17 04:00:56;;;;;;;16.63;4.67;;;8.50;99.90;;;;;;4974670;28;20846;-72
2023/05/17 04:03:25;;;;;;;10.13;4.30;;;8.50;99.90;;;;;;4976100;28;20513;-72
2023/05/17 04:05:54;;;;;;;12.93;4.23;;;8.50;99.90;;;;;;4975714;28;20474;-72
2023/05/17 04:08:22;;;;;;;11.97;3.90;;;8.50;99.90;;;;;;4975904;28;20519;-73
2023/05/17 04:10:50;;;;;;;10.13;4.80;;;8.50;99.90;;;;;;4977038;28;20481;-72
2023/05/17 04:13:20;;;;;;;13.63;4.23;;;8.50;99.90;;;;;;4975725;28;20461;-72
2023/05/17 04:15:48;;;;;;;11.57;4.20;;;8.50;99.90;;;;;;4976036;28;20473;-72
2023/05/17 04:18:17;;;;;;;10.57;4.00;;;8.50;99.90;;;;;;4975682;28;20495;-72
2023/05/17 04:20:45;;;;;;;10.20;3.90;;;8.50;99.90;;;;;;4975646;28;20477;-72
2023/05/17 04:23:14;;;;;;;12.20;4.00;;;8.50;99.90;;;;;;4975868;28;20460;-72
2023/05/17 04:25:43;;;;;;;9.30;3.30;;;8.50;99.90;;;;;;4975396;28;21005;-72
2023/05/17 04:28:11;;;;;;;12.10;3.90;;;8.50;99.90;;;;;;4975423;28;20555;-71
2023/05/17 04:30:43;;;;;;;14.00;3.77;;;8.50;99.90;;;;;;4975437;28;20948;-71
2023/05/17 04:33:12;;;;;;;15.30;4.13;;;8.50;99.90;;;;;;4976628;28;20477;-72
2023/05/17 04:35:42;;;;;;;13.23;4.33;;;8.50;99.90;;;;;;4975284;28;21011;-71
2023/05/17 04:38:11;;;;;;;10.73;4.00;;;8.60;99.90;;;;;;4975365;28;20449;-72
2023/05/17 04:40:39;;;;;;;11.67;3.83;;;8.60;99.90;;;;;;4975567;28;20501;-72
2023/05/17 04:43:08;;;;;;;10.27;3.77;;;8.60;99.90;;;;;;4975316;28;20453;-72
2023/05/17 04:45:38;;;;;;;11.20;3.57;;;8.60;99.90;;;;;;4975165;28;20462;-72
2023/05/17 04:48:07;;;;;;;13.77;3.63;;;8.70;99.90;;;;;;4976552;28;20466;-72
2023/05/17 04:50:36;;;;;;;8.73;3.07;;;8.70;99.90;;;;;;4976317;28;20440;-72
2023/05/17 04:53:04;;;;;;;12.10;3.60;;;8.70;99.90;;;;;;4975064;28;20456;-72
2023/05/17 04:55:35;;;;;;;9.80;3.23;;;8.70;99.90;;;;;;4974948;28;20468;-71
2023/05/17 04:58:04;;;;;;;14.03;3.80;;;8.70;99.90;;;;;;4974905;28;20496;-72
2023/05/17 05:00:33;;;;;;;11.40;3.20;;;8.70;99.90;;;;;;4975118;28;20453;-72
2023/05/17 05:03:04;;;;;;;11.30;3.57;;;8.80;99.90;;;;;;4974885;28;20485;-72
2023/05/17 05:05:35;;;;;;;11.30;3.87;;;8.80;99.90;;;;;;4974915;28;20509;-72
2023/05/17 05:08:04;;;;;;;10.00;3.40;;;8.80;99.90;;;;;;4974916;28;20470;-73
2023/05/17 05:10:33;;;;;;;12.13;4.00;;;8.80;99.90;;;;;;4974830;28;20446;-72
2023/05/17 05:13:01;;;;;;;9.17;3.10;;;8.90;99.90;;;;;;4974820;28;20508;-72
2023/05/17 05:15:31;;;;;;;9.73;3.90;;;8.90;99.90;;;;;;4977079;28;20549;-72
2023/05/17 05:18:00;;;;;;;10.97;4.00;;;8.90;99.90;;;;;;4980800;28;20457;-72
2023/05/17 05:20:32;;;;;;;7.53;3.10;;;8.90;99.90;;;;;;4978537;28;20476;-73
2023/05/17 05:23:04;;;;;;;11.30;3.23;;;9.00;99.90;;;;;;4976958;28;20449;-72
2023/05/17 05:25:34;;;;;;;9.67;3.40;;;9.00;99.90;;;;;;4977048;28;20507;-72
2023/05/17 05:28:02;;;;;;;12.40;4.07;;;9.00;99.90;;;;;;4975143;28;20465;-72
2023/05/17 05:30:32;;;;;;;10.40;3.67;;;9.10;99.90;;;;;;4976479;28;20441;-72
2023/05/17 05:33:00;;;;;;;10.10;4.20;;;9.10;99.90;;;;;;4975380;28;20500;-73
2023/05/17 05:35:29;;;;;;;16.60;4.10;;;9.10;99.90;;;;;;4974985;28;20500;-71
2023/05/17 05:37:59;;;;;;;11.30;3.70;;;9.20;99.90;;;;;;4976250;28;20465;-72
2023/05/17 05:40:29;;;;;;;11.20;3.53;;;9.20;99.90;;;;;;4974691;28;20476;-72
2023/05/17 05:42:57;;;;;;;10.57;3.73;;;9.20;99.90;;;;;;4974440;28;20450;-72
2023/05/17 05:45:25;;;;;;;9.60;3.57;;;9.30;99.90;;;;;;4974405;28;20474;-73
2023/05/17 05:47:57;;;;;;;12.80;3.93;;;9.30;99.90;;;;;;4974268;28;20528;-73
2023/05/17 05:50:25;;;;;;;10.40;3.40;;;9.30;99.90;;;;;;4974126;28;20563;-72
2023/05/17 05:53:00;;;;;;;12.57;3.60;;;9.40;99.90;;;;;;4974574;28;20452;-72
2023/05/17 05:55:49;;;;;;;8.83;3.10;;;9.50;99.90;;;;;;4975156;28;20524;-73
2023/05/17 05:58:18;;;;;;;10.37;3.90;;;9.70;99.90;;;;;;4974608;28;20943;-73
2023/05/17 06:00:47;;;;;;;11.37;3.30;;;9.80;99.90;;;;;;4974817;28;20462;-72
2023/05/17 06:03:15;;;;;;;13.33;4.30;;;9.80;99.90;;;;;;4973988;28;20449;-72
2023/05/17 06:05:43;;;;;;;14.90;4.00;;;9.90;99.90;;;;;;4975066;28;20458;-72
2023/05/17 06:08:11;;;;;;;12.10;3.63;;;9.90;99.90;;;;;;4975072;28;20982;-72
2023/05/17 06:10:39;;;;;;;10.47;3.30;;;9.90;99.90;;;;;;4975212;28;20475;-72
2023/05/17 06:13:09;;;;;;;17.57;4.30;;;9.90;99.90;;;;;;4974984;28;20438;-72
2023/05/17 06:15:37;;;;;;;15.43;4.50;;;9.90;99.90;;;;;;4973609;28;20521;-72
2023/05/17 06:18:05;;;;;;;14.57;3.47;;;9.90;99.90;;;;;;4974905;28;20457;-72
2023/05/17 06:20:33;;;;;;;13.37;4.10;;;9.90;99.90;;;;;;4975025;28;20437;-72
2023/05/17 06:23:03;;;;;;;9.43;3.47;;;9.90;99.90;;;;;;4974735;28;20449;-72
2023/05/17 06:25:32;;;;;;;14.83;4.20;;;9.90;99.90;;;;;;4975462;28;20824;-72
2023/05/17 06:28:01;;;;;;;11.90;4.63;;;10.00;99.90;;;;;;4975351;28;20469;-73
2023/05/17 06:30:31;;;;;;;14.77;4.07;;;10.10;99.90;;;;;;4974905;28;20433;-72
2023/05/17 06:32:59;;;;;;;13.63;4.30;;;10.20;99.90;;;;;;4975381;28;20437;-72
2023/05/17 06:35:28;;;;;;;15.17;4.10;;;10.30;99.90;;;;;;4974719;28;20459;-72
2023/05/17 06:38:04;;;;;;;13.73;4.07;;;10.30;99.90;;;;;;4973543;28;20452;-72
2023/05/17 06:40:33;;;;;;;12.67;4.07;;;10.40;99.90;;;;;;4974758;28;20442;-72
2023/05/17 06:43:01;;;;;;;13.17;3.87;;;10.40;99.90;;;;;;4974667;28;20453;-73
2023/05/17 06:45:31;;;;;;;13.00;4.43;;;10.40;99.90;;;;;;4974588;28;20468;-72
2023/05/17 06:47:59;;;;;;;15.83;4.03;;;10.40;99.90;;;;;;4973305;28;20474;-72
2023/05/17 06:50:27;;;;;;;12.17;4.70;;;10.40;99.90;;;;;;4974636;28;20957;-72
2023/05/17 06:52:56;;;;;;;13.03;4.13;;;10.40;99.90;;;;;;4974982;28;20469;-72
2023/05/17 06:55:24;;;;;;;10.90;3.93;;;10.40;99.90;;;;;;4974303;28;20532;-72
2023/05/17 06:57:52;;;;;;;14.30;4.43;;;10.40;99.90;;;;;;4974380;28;20437;-73
2023/05/17 07:00:20;;;;;;;13.10;3.50;;;10.40;99.90;;;;;;4974493;28;20481;-73
2023/05/17 07:02:50;;;;;;;8.57;4.00;;;10.40;99.90;;;;;;4975052;28;20527;-72
2023/05/17 07:05:19;;;;;;;12.60;4.70;;;10.40;99.90;;;;;;4974752;28;20532;-72
2023/05/17 07:07:47;;;;;;;11.53;3.80;;;10.40;99.90;;;;;;4974963;28;20508;-72
2023/05/17 07:10:15;;;;;;;10.63;4.03;;;10.40;99.90;;;;;;4973787;28;20445;-72
2023/05/17 07:12:43;;;;;;;12.60;4.10;;;10.30;99.90;;;;;;4974634;28;20545;-72
2023/05/17 07:15:12;;;;;;;11.40;3.70;;;10.30;99.90;;;;;;4974339;28;20464;-72
2023/05/17 07:17:40;;;;;;;11.87;4.57;;;10.30;99.90;;;;;;4973102;28;20496;-72
2023/05/17 07:20:12;;;;;;;13.03;4.63;;;10.30;99.90;;;;;;4975042;28;20448;-72
2023/05/17 07:22:40;;;;;;;8.70;3.40;;;10.40;99.90;;;;;;4974484;28;20426;-72
2023/05/17 07:25:10;;;;;;;14.57;4.43;;;10.40;99.90;;;;;;4974795;28;20461;-72
2023/05/17 07:27:38;;;;;;;10.27;4.10;;;10.50;99.90;;;;;;4974688;28;20446;-72
2023/05/17 07:30:07;;;;;;;11.27;4.17;;;10.50;99.90;;;;;;4974669;28;20430;-72
2023/05/17 07:32:35;;;;;;;11.03;3.83;;;10.60;99.90;;;;;;4974433;28;20804;-72
2023/05/17 07:35:04;;;;;;;11.97;3.47;;;10.60;99.90;;;;;;4975127;28;20491;-73
2023/05/17 07:37:33;;;;;;;12.13;3.80;;;10.80;99.90;;;;;;4977596;28;20458;-73
2023/05/17 07:40:01;;;;;;;13.73;3.80;;;10.90;99.90;;;;;;4977675;28;20464;-73
2023/05/17 07:42:33;;;;;;;10.40;3.97;;;11.00;99.90;;;;;;4978396;28;20500;-73
2023/05/17 07:45:01;;;;;;;10.17;3.47;;;11.20;99.90;;;;;;4976901;28;20978;-73
2023/05/17 07:47:29;;;;;;;12.63;3.93;;;11.40;99.90;;;;;;4978692;28;20476;-73
2023/05/17 07:49:58;;;;;;;9.50;3.80;;;11.40;99.80;;;;;;4977883;28;20496;-73
2023/05/17 07:52:26;;;;;;;9.30;2.90;;;11.40;99.70;;;;;;4977940;28;20441;-73
2023/05/17 07:54:55;;;;;;;10.80;4.00;;;11.30;99.60;;;;;;4978220;28;20544;-70
2023/05/17 07:57:24;;;;;;;8.73;3.93;;;11.30;99.40;;;;;;4977771;28;21037;-72
2023/05/17 07:59:52;;;;;;;14.40;4.30;;;11.30;99.10;;;;;;4978608;28;20444;-73
2023/05/17 08:02:20;;;;;;;11.17;3.37;;;11.30;99.10;;;;;;4976720;28;20438;-73
2023/05/17 08:04:48;;;;;;;13.03;4.20;;;11.20;99.10;;;;;;4977752;28;20877;-73
2023/05/17 08:07:17;;;;;;;12.93;3.27;;;11.20;99.00;;;;;;4978040;28;20512;-73
2023/05/17 08:09:45;;;;;;;8.87;3.20;;;11.20;98.90;;;;;;4977596;28;20508;-72
2023/05/17 08:12:15;;;;;;;11.43;3.40;;;11.10;98.70;;;;;;4977873;28;20536;-72
2023/05/17 08:14:43;;;;;;;15.20;3.60;;;11.10;98.80;;;;;;4977402;28;20462;-72
2023/05/17 08:17:11;;;;;;;11.03;3.50;;;11.10;98.90;;;;;;4977660;28;20477;-73
2023/05/17 08:19:39;;;;;;;10.57;3.60;;;11.00;99.00;;;;;;4977153;28;20446;-72
2023/05/17 08:22:08;;;;;;;9.00;2.93;;;10.90;99.30;;;;;;4977490;28;20604;-72
2023/05/17 08:24:36;;;;;;;9.73;3.77;;;10.90;99.20;;;;;;4976914;28;20472;-72
2023/05/17 08:27:05;;;;;;;8.03;3.00;;;11.00;99.40;;;;;;4977636;28;20526;-73
2023/05/17 08:29:34;;;;;;;8.23;2.60;;;11.10;99.20;;;;;;4975757;28;20505;-72
2023/05/17 08:32:06;;;;;;;9.70;2.57;;;11.10;99.10;;;;;;4977613;28;20508;-72
2023/05/17 08:34:35;;;;;;;7.87;2.50;;;11.20;99.00;;;;;;4975749;28;20474;-73
2023/05/17 08:37:03;;;;;;;13.47;2.90;;;11.20;98.90;;;;;;4975566;28;20852;-73
2023/05/17 08:39:32;;;;;;;7.20;2.80;;;11.20;98.70;;;;;;4977015;28;20433;-74
2023/05/17 08:42:01;;;;;;;8.20;3.00;;;11.30;98.80;;;;;;4975415;28;20446;-73
2023/05/17 08:44:29;;;;;;;6.60;2.47;;;11.40;98.80;;;;;;4977478;28;20470;-72
2023/05/17 08:47:00;;;;;;;9.60;2.43;;;11.50;98.80;;;;;;4975334;28;20497;-72
2023/05/17 08:49:32;;;;;;;7.57;2.37;;;11.70;98.50;;;;;;4977293;28;20546;-72
2023/05/17 08:52:02;;;;;;;7.30;2.60;;;11.80;98.20;;;;;;4977169;28;20510;-72
2023/05/17 08:54:30;;;;;;;9.43;2.50;;;11.80;98.10;;;;;;4977371;28;21005;-73
2023/05/17 08:57:01;;;;;;;9.37;2.80;;;11.80;97.80;;;;;;4975516;28;20808;-73
2023/05/17 08:59:32;;;;;;;7.17;2.17;;;11.80;97.50;;;;;;4975513;28;20508;-73
2023/05/17 09:02:03;;;;;;;9.70;2.60;;;11.80;97.20;;;;;;4974325;28;20529;-72
2023/05/17 09:04:31;;;;;;;5.90;2.60;;;11.80;97.10;;;;;;4976748;28;20512;-73
2023/05/17 09:07:00;;;;;;;8.37;2.40;;;11.80;97.00;;;;;;4976536;28;20444;-73
2023/05/17 09:09:28;;;;;;;7.30;2.87;;;11.80;96.90;;;;;;4976513;28;20474;-72
2023/05/17 09:11:57;;;;;;;9.10;3.07;;;11.90;97.00;;;;;;4976674;28;20452;-72
2023/05/17 09:14:25;;;;;;;6.67;2.50;;;11.90;97.10;;;;;;4976523;28;20939;-72
2023/05/17 09:16:57;;;;;;;6.60;3.37;;;12.00;97.10;;;;;;4976558;28;20951;-73
2023/05/17 09:19:26;;;;;;;9.07;3.00;;;12.10;96.90;;;;;;4975230;28;20444;-72
2023/05/17 09:21:55;;;;;;;6.80;2.30;;;12.10;96.90;;;;;;4976747;28;20537;-73
2023/05/17 09:24:28;;;;;;;6.90;2.50;;;12.10;96.90;;;;;;4976146;28;20478;-73
2023/05/17 09:27:02;;;;;;;9.67;2.67;;;12.10;96.80;;;;;;4976351;28;20437;-73
2023/05/17 09:29:32;;;;;;;7.37;2.30;;;12.10;96.90;;;;;;4976022;28;20462;-73
2023/05/17 09:32:13;;;;;;;7.70;2.43;;;12.10;97.00;;;;;;4976015;28;20429;-73
2023/05/17 09:34:45;;;;;;;10.30;3.20;;;12.30;97.20;;;;;;4974944;28;20483;-73
2023/05/17 09:37:15;;;;;;;8.00;2.23;;;12.40;97.10;;;;;;4976300;28;20425;-73
2023/05/17 09:39:44;;;;;;;7.90;2.30;;;12.40;97.10;;;;;;4975861;28;20465;-72
2023/05/17 09:42:13;;;;;;;6.87;1.97;;;12.50;97.10;;;;;;4975603;28;20529;-72
2023/05/17 09:44:49;;;;;;;8.47;2.63;;;12.50;97.00;;;;;;4974706;28;20525;-73
2023/05/17 09:47:28;;;;;;;8.87;2.67;;;12.50;96.90;;;;;;4975738;28;20441;-72
2023/05/17 09:50:02;;;;;;;10.03;3.00;;;12.60;97.10;;;;;;4976118;28;20512;-74
2023/05/17 09:52:31;;;;;;;9.30;2.60;;;12.60;96.90;;;;;;4975011;28;20465;-73
2023/05/17 09:55:00;;;;;;;5.33;2.53;;;12.60;96.80;;;;;;4975677;28;20897;-73
2023/05/17 09:57:36;;;;;;;8.67;2.57;;;12.50;96.80;;;;;;4975176;28;20444;-73
2023/05/17 10:00:08;;;;;;;10.73;2.67;;;12.50;96.70;;;;;;4975849;28;20418;-72
2023/05/17 10:02:37;;;;;;;11.13;3.00;;;12.50;96.70;;;;;;4975991;28;20454;-73
2023/05/17 10:05:10;;;;;;;6.70;2.80;;;12.40;96.70;;;;;;4975892;28;20453;-72
2023/05/17 10:07:40;;;;;;;8.33;2.73;;;12.40;96.60;;;;;;4976184;28;20429;-73
2023/05/17 10:10:09;;;;;;;11.30;2.33;;;12.40;96.70;;;;;;4974104;28;20478;-74
2023/05/17 10:12:40;;;;;;;7.40;2.50;;;12.40;96.80;;;;;;4975427;28;20456;-74
2023/05/17 10:15:11;;;;;;;9.13;2.50;;;12.40;96.80;;;;;;4974863;28;20859;-73
2023/05/17 10:17:40;;;;;;;9.60;3.10;;;12.50;96.90;;;;;;4974807;28;20544;-73
2023/05/17 10:20:16;;;;;;;7.80;2.43;;;12.40;96.90;;;;;;4975098;28;20418;-74
2023/05/17 10:22:45;;;;;;;9.50;3.23;;;12.40;96.80;;;;;;4974943;28;20520;-73
2023/05/17 10:25:14;;;;;;;13.23;2.90;;;12.30;96.80;;;;;;4975267;28;21031;-73
2023/05/17 10:27:42;;;;;;;8.50;3.27;;;12.20;96.90;;;;;;4975001;28;20447;-72
2023/05/17 10:30:13;;;;;;;8.57;2.97;;;12.10;97.10;;;;;;4974854;28;20512;-72
2023/05/17 10:32:42;;;;;;;8.20;2.63;;;12.10;97.30;;;;;;4975148;28;20902;-73
2023/05/17 10:35:14;;;;;;;11.30;3.60;;;12.00;97.50;;;;;;4974558;28;20813;-72
2023/05/17 10:37:42;;;;;;;9.83;3.33;;;12.00;97.70;;;;;;4973547;28;20836;-73
2023/05/17 10:40:13;;;;;;;7.67;2.50;;;12.00;98.00;;;;;;4974777;28;20469;-72
2023/05/17 10:42:43;;;;;;;8.20;2.60;;;12.00;97.90;;;;;;4974798;28;20426;-72
2023/05/17 10:45:13;;;;;;;7.50;2.10;;;12.00;97.90;;;;;;4974863;28;20467;-72
2023/05/17 10:47:42;;;;;;;6.83;2.70;;;12.10;98.30;;;;;;4974481;28;20446;-72
2023/05/17 10:50:13;;;;;;;5.80;2.40;;;12.20;98.10;;;;;;4974339;28;20473;-73
2023/05/17 10:52:47;;;;;;;7.37;2.37;;;12.40;98.20;;;;;;4974961;28;20418;-72
2023/05/17 10:55:19;;;;;;;5.77;2.50;;;12.50;98.20;;;;;;4974338;28;20524;-73
2023/05/17 10:58:13;;;;;;;8.30;2.20;;;12.60;98.10;;;;;;4974464;28;20453;-73
2023/05/17 11:00:42;;;;;;;8.60;2.37;;;12.50;97.60;;;;;;4974709;28;20426;-72
2023/05/17 11:03:14;;;;;;;10.23;2.67;;;12.40;97.50;;;;;;4974399;28;20492;-72
2023/05/17 11:05:44;;;;;;;11.03;2.77;;;12.30;97.50;;;;;;4974411;28;20465;-72
2023/05/17 11:08:15;;;;;;;8.43;2.70;;;12.30;97.60;;;;;;4974798;28;20461;-73
2023/05/17 11:11:07;;;;;;;5.53;2.30;;;12.20;97.50;;;;;;4977996;28;20473;-73
2023/05/17 11:13:50;;;;;;;8.93;3.27;;;12.30;97.50;;;;;;4966679;28;20489;-73
2023/05/17 11:16:22;;;;;;;10.90;3.47;;;12.30;97.50;;;;;;4978321;28;20947;-72
2023/05/17 11:18:51;;;;;;;8.67;3.13;;;12.40;97.50;;;;;;4978177;28;20820;-73
2023/05/17 11:21:22;;;;;;;6.63;2.63;;;12.40;97.50;;;;;;4978287;28;20972;-72
2023/05/17 11:24:00;;;;;;;10.33;3.40;;;12.60;97.70;;;;;;4978416;28;20529;-73
2023/05/17 11:26:33;;;;;;;10.00;3.53;;;12.70;97.80;;;;;;4978152;28;20461;-72
2023/05/17 11:29:04;;;;;;;8.73;3.20;;;12.70;97.50;;;;;;4977939;28;20417;-73
2023/05/17 11:31:35;;;;;;;7.20;2.93;;;12.70;97.40;;;;;;4978280;28;20817;-73
2023/05/17 11:34:04;;;;;;;9.33;3.33;;;12.70;97.30;;;;;;4976587;28;20437;-73
2023/05/17 11:36:49;;;;;;;10.67;3.20;;;12.70;97.20;;;;;;4977780;28;20453;-73
2023/05/17 11:39:21;;;;;;;10.60;2.70;;;12.80;96.80;;;;;;4977233;28;20915;-73
2023/05/17 11:41:50;;;;;;;10.13;3.53;;;12.80;96.40;;;;;;4978079;28;20842;-72
2023/05/17 11:44:24;;;;;;;9.30;3.10;;;12.90;96.20;;;;;;4977729;28;20527;-73
2023/05/17 11:47:01;;;;;;;8.10;3.37;;;12.90;95.90;;;;;;4978565;28;20907;-73
2023/05/17 11:49:32;;;;;;;7.67;2.40;;;12.90;95.70;;;;;;4978088;28;20472;-72
2023/05/17 11:52:05;;;;;;;9.17;2.80;;;13.00;95.60;;;;;;4977357;28;20461;-72
2023/05/17 11:54:34;;;;;;;6.30;2.00;;;13.00;95.50;;;;;;4977851;28;20652;-71
2023/05/17 11:57:03;;;;;;;7.17;2.40;;;13.10;95.60;;;;;;4977508;28;20445;-72
2023/05/17 11:59:38;;;;;;;7.20;2.43;;;13.10;95.30;;;;;;4977284;28;20504;-71
2023/05/17 12:02:07;;;;;;;7.70;2.40;;;13.20;94.80;;;;;;4975985;28;20819;-72
2023/05/17 12:04:37;;;;;;;7.60;2.80;;;13.20;94.70;;;;;;4977119;28;20457;-72
2023/05/17 12:07:09;;;;;;;7.07;2.77;;;13.30;94.70;;;;;;4977026;28;20943;-72
2023/05/17 12:09:39;;;;;;;8.43;2.87;;;13.30;94.50;;;;;;4977126;28;20429;-72
2023/05/17 12:12:08;;;;;;;7.03;2.70;;;13.30;94.60;;;;;;4976928;28;20470;-73
2023/05/17 12:14:37;;;;;;;6.00;2.37;;;13.30;94.70;;;;;;4977002;28;20461;-74
2023/05/17 12:17:08;;;;;;;8.33;2.97;;;13.30;94.70;;;;;;4976926;28;20499;-72
2023/05/17 12:19:36;;;;;;;9.30;2.50;;;13.40;94.90;;;;;;4975469;28;20453;-72
2023/05/17 12:22:11;;;;;;;9.27;2.90;;;13.40;95.00;;;;;;4974854;28;20901;-72
2023/05/17 12:24:40;;;;;;;6.70;2.77;;;13.40;95.10;;;;;;4976877;28;20802;-73
2023/05/17 12:27:09;;;;;;;9.50;3.07;;;13.40;95.20;;;;;;4975411;28;20454;-72
2023/05/17 12:29:39;;;;;;;10.13;2.80;;;13.40;95.60;;;;;;4976540;28;20448;-73
2023/05/17 12:32:09;;;;;;;8.50;2.90;;;13.40;95.50;;;;;;4976549;28;20469;-73
2023/05/17 12:34:37;;;;;;;8.67;3.20;;;13.40;95.70;;;;;;4976541;28;20504;-73
2023/05/17 12:37:09;;;;;;;10.30;2.83;;;13.50;95.80;;;;;;4976757;28;20496;-73
2023/05/17 12:39:39;;;;;;;8.33;2.70;;;13.50;95.90;;;;;;4977004;28;20786;-73
2023/05/17 12:42:09;;;;;;;8.43;3.00;;;13.40;95.80;;;;;;4976423;28;20433;-73
2023/05/17 12:44:37;;;;;;;10.53;3.57;;;13.40;95.90;;;;;;4975394;28;20877;-74
2023/05/17 12:47:06;;;;;;;8.80;2.70;;;13.30;95.80;;;;;;4976387;28;20445;-73
2023/05/17 12:49:39;;;;;;;6.83;2.77;;;13.30;95.90;;;;;;4976263;28;20524;-74
2023/05/17 12:52:07;;;;;;;11.60;3.53;;;13.30;96.00;;;;;;4976501;28;20457;-74
2023/05/17 12:54:35;;;;;;;8.17;3.03;;;13.30;96.10;;;;;;4976751;28;20552;-73
2023/05/17 12:57:12;;;;;;;8.27;3.20;;;13.30;96.20;;;;;;4976510;28;20864;-74